sensor_id;sensor_type;location;lat;lon;timestamp;pressure;altitude;pressure_sealevel;temperature;humidity
13050;BME280;6591;51.446;5.404;2023-04-26T00:00:31;101643.47;;;8.27;44.42
13050;BME280;6591;51.446;5.404;2023-04-26T00:02:59;101642.72;;;8.22;44.99
13050;BME280;6591;51.446;5.404;2023-04-26T00:05:27;101644.56;;;8.19;45.00
13050;BME280;6591;51.446;5.404;2023-04-26T00:07:55;101642.03;;;8.14;44.50
13050;BME280;6591;51.446;5.404;2023-04-26T00:10:22;101640.38;;;8.10;44.49
13050;BME280;6591;51.446;5.404;2023-04-26T00:12:49;101644.84;;;8.06;45.14
13050;BME280;6591;51.446;5.404;2023-04-26T00:15:17;101642.28;;;8.03;44.55
13050;BME280;6591;51.446;5.404;2023-04-26T00:17:44;101646.78;;;8.00;44.95
13050;BME280;6591;51.446;5.404;2023-04-26T00:20:12;101644.16;;;7.97;44.58
13050;BME280;6591;51.446;5.404;2023-04-26T00:22:39;101642.50;;;7.93;45.12
13050;BME280;6591;51.446;5.404;2023-04-26T00:25:07;101643.41;;;7.92;45.13
13050;BME280;6591;51.446;5.404;2023-04-26T00:27:34;101648.78;;;7.89;45.16
13050;BME280;6591;51.446;5.404;2023-04-26T00:30:01;101647.09;;;7.85;44.76
13050;BME280;6591;51.446;5.404;2023-04-26T00:32:29;101638.31;;;7.83;45.14
13050;BME280;6591;51.446;5.404;2023-04-26T00:34:57;101642.84;;;7.78;44.92
13050;BME280;6591;51.446;5.404;2023-04-26T00:37:24;101637.59;;;7.75;45.35
13050;BME280;6591;51.446;5.404;2023-04-26T00:39:51;101635.88;;;7.74;45.15
13050;BME280;6591;51.446;5.404;2023-04-26T00:42:18;101643.81;;;7.72;46.12
13050;BME280;6591;51.446;5.404;2023-04-26T00:44:45;101646.50;;;7.71;45.30
13050;BME280;6591;51.446;5.404;2023-04-26T00:47:12;101648.31;;;7.69;45.83
13050;BME280;6591;51.446;5.404;2023-04-26T00:49:40;101646.59;;;7.66;45.27
13050;BME280;6591;51.446;5.404;2023-04-26T00:52:07;101646.69;;;7.61;45.11
13050;BME280;6591;51.446;5.404;2023-04-26T00:54:34;101638.88;;;7.55;45.49
13050;BME280;6591;51.446;5.404;2023-04-26T00:57:02;101647.78;;;7.51;45.38
13050;BME280;6591;51.446;5.404;2023-04-26T00:59:29;101645.25;;;7.45;45.75
13050;BME280;6591;51.446;5.404;2023-04-26T01:01:57;101646.19;;;7.43;45.84
13050;BME280;6591;51.446;5.404;2023-04-26T01:04:25;101641.84;;;7.39;46.06
13050;BME280;6591;51.446;5.404;2023-04-26T01:06:55;101646.25;;;7.38;45.75
13050;BME280;6591;51.446;5.404;2023-04-26T01:09:22;101640.16;;;7.36;46.29
13050;BME280;6591;51.446;5.404;2023-04-26T01:11:50;101642.81;;;7.35;45.90
13050;BME280;6591;51.446;5.404;2023-04-26T01:14:18;101641.94;;;7.34;45.97
13050;BME280;6591;51.446;5.404;2023-04-26T01:16:45;101642.84;;;7.33;45.86
13050;BME280;6591;51.446;5.404;2023-04-26T01:19:13;101644.63;;;7.33;46.00
13050;BME280;6591;51.446;5.404;2023-04-26T01:21:41;101647.28;;;7.33;46.13
13050;BME280;6591;51.446;5.404;2023-04-26T01:24:12;101647.28;;;7.33;46.14
13050;BME280;6591;51.446;5.404;2023-04-26T01:26:41;101647.22;;;7.34;46.23
13050;BME280;6591;51.446;5.404;2023-04-26T01:29:20;101652.50;;;7.34;46.59
13050;BME280;6591;51.446;5.404;2023-04-26T01:31:47;101648.97;;;7.35;46.64
13050;BME280;6591;51.446;5.404;2023-04-26T01:34:15;101648.97;;;7.35;46.43
13050;BME280;6591;51.446;5.404;2023-04-26T01:36:44;101641.94;;;7.34;45.97
13050;BME280;6591;51.446;5.404;2023-04-26T01:39:12;101650.75;;;7.33;46.54
13050;BME280;6591;51.446;5.404;2023-04-26T01:41:39;101647.31;;;7.30;46.28
13050;BME280;6591;51.446;5.404;2023-04-26T01:44:06;101653.53;;;7.27;45.80
13050;BME280;6591;51.446;5.404;2023-04-26T01:46:33;101652.75;;;7.22;46.11
13050;BME280;6591;51.446;5.404;2023-04-26T01:49:00;101651.97;;;7.17;46.35
13050;BME280;6591;51.446;5.404;2023-04-26T01:51:29;101653.78;;;7.12;46.36
13050;BME280;6591;51.446;5.404;2023-04-26T01:53:56;101648.59;;;7.09;46.45
13050;BME280;6591;51.446;5.404;2023-04-26T01:56:24;101643.38;;;7.06;46.68
13050;BME280;6591;51.446;5.404;2023-04-26T01:58:52;101652.19;;;7.03;46.18
13050;BME280;6591;51.446;5.404;2023-04-26T02:01:22;101646.13;;;7.00;46.50
13050;BME280;6591;51.446;5.404;2023-04-26T02:03:49;101646.13;;;7.00;46.54
13050;BME280;6591;51.446;5.404;2023-04-26T02:06:18;101650.53;;;6.98;46.42
13050;BME280;6591;51.446;5.404;2023-04-26T02:08:45;101640.88;;;6.97;46.82
13050;BME280;6591;51.446;5.404;2023-04-26T02:11:12;101647.06;;;6.96;46.95
13050;BME280;6591;51.446;5.404;2023-04-26T02:13:39;101646.22;;;6.94;46.36
13050;BME280;6591;51.446;5.404;2023-04-26T02:16:07;101660.31;;;6.93;46.66
13050;BME280;6591;51.446;5.404;2023-04-26T02:18:34;101647.13;;;6.91;46.81
13050;BME280;6591;51.446;5.404;2023-04-26T02:21:01;101650.72;;;6.87;46.83
13050;BME280;6591;51.446;5.404;2023-04-26T02:23:30;101648.09;;;6.86;46.97
13050;BME280;6591;51.446;5.404;2023-04-26T02:25:57;101645.53;;;6.82;46.71
13050;BME280;6591;51.446;5.404;2023-04-26T02:28:24;101648.19;;;6.81;46.78
13050;BME280;6591;51.446;5.404;2023-04-26T02:30:54;101645.63;;;6.76;46.82
13050;BME280;6591;51.446;5.404;2023-04-26T02:33:23;101643.88;;;6.75;47.16
13050;BME280;6591;51.446;5.404;2023-04-26T02:35:50;101643.06;;;6.73;46.91
13050;BME280;6591;51.446;5.404;2023-04-26T02:38:18;101640.41;;;6.73;46.74
13050;BME280;6591;51.446;5.404;2023-04-26T02:40:45;101642.22;;;6.70;46.95
13050;BME280;6591;51.446;5.404;2023-04-26T02:43:14;101636.94;;;6.70;47.24
13050;BME280;6591;51.446;5.404;2023-04-26T02:45:42;101635.22;;;6.69;46.84
13050;BME280;6591;51.446;5.404;2023-04-26T02:48:11;101636.97;;;6.68;47.47
13050;BME280;6591;51.446;5.404;2023-04-26T02:50:39;101639.63;;;6.68;47.67
13050;BME280;6591;51.446;5.404;2023-04-26T02:53:06;101643.09;;;6.70;47.61
13050;BME280;6591;51.446;5.404;2023-04-26T02:55:33;101631.66;;;6.70;47.61
13050;BME280;6591;51.446;5.404;2023-04-26T02:58:00;101635.16;;;6.72;47.20
13050;BME280;6591;51.446;5.404;2023-04-26T03:00:27;101628.97;;;6.73;47.70
13050;BME280;6591;51.446;5.404;2023-04-26T03:02:54;101624.56;;;6.73;47.36
13050;BME280;6591;51.446;5.404;2023-04-26T03:05:23;101623.72;;;6.73;47.67
13050;BME280;6591;51.446;5.404;2023-04-26T03:07:50;101626.34;;;6.73;47.61
13050;BME280;6591;51.446;5.404;2023-04-26T03:10:17;101622.84;;;6.71;47.61
13050;BME280;6591;51.446;5.404;2023-04-26T03:12:45;101621.09;;;6.71;48.01
13050;BME280;6591;51.446;5.404;2023-04-26T03:15:14;101621.97;;;6.70;47.07
13050;BME280;6591;51.446;5.404;2023-04-26T03:17:41;101627.31;;;6.69;47.15
13050;BME280;6591;51.446;5.404;2023-04-26T03:20:10;101625.56;;;6.68;47.14
13050;BME280;6591;51.446;5.404;2023-04-26T03:22:37;101627.34;;;6.66;47.76
13050;BME280;6591;51.446;5.404;2023-04-26T03:25:06;101623.00;;;6.63;47.23
13050;BME280;6591;51.446;5.404;2023-04-26T03:27:34;101619.50;;;6.61;47.78
13050;BME280;6591;51.446;5.404;2023-04-26T03:30:01;101616.03;;;6.59;47.29
13050;BME280;6591;51.446;5.404;2023-04-26T03:32:32;101616.06;;;6.56;47.50
13050;BME280;6591;51.446;5.404;2023-04-26T03:35:00;101620.47;;;6.56;46.99
13050;BME280;6591;51.446;5.404;2023-04-26T03:37:28;101618.78;;;6.53;47.18
13050;BME280;6591;51.446;5.404;2023-04-26T03:40:01;101621.44;;;6.50;48.00
13050;BME280;6591;51.446;5.404;2023-04-26T03:42:28;101606.53;;;6.48;48.17
13050;BME280;6591;51.446;5.404;2023-04-26T03:44:55;101613.59;;;6.47;46.99
13050;BME280;6591;51.446;5.404;2023-04-26T03:47:22;101617.19;;;6.43;47.98
13050;BME280;6591;51.446;5.404;2023-04-26T03:49:50;101615.44;;;6.42;47.76
13050;BME280;6591;51.446;5.404;2023-04-26T03:52:17;101607.53;;;6.39;48.03
13050;BME280;6591;51.446;5.404;2023-04-26T03:54:46;101618.09;;;6.39;47.83
13050;BME280;6591;51.446;5.404;2023-04-26T03:57:14;101612.88;;;6.37;47.09
13050;BME280;6591;51.446;5.404;2023-04-26T03:59:41;101624.31;;;6.36;47.87
13050;BME280;6591;51.446;5.404;2023-04-26T04:02:08;101626.06;;;6.36;47.33
13050;BME280;6591;51.446;5.404;2023-04-26T04:04:35;101625.19;;;6.34;47.11
13050;BME280;6591;51.446;5.404;2023-04-26T04:07:03;101619.06;;;6.33;47.59
13050;BME280;6591;51.446;5.404;2023-04-26T04:09:32;101624.31;;;6.35;47.95
13050;BME280;6591;51.446;5.404;2023-04-26T04:11:59;101622.56;;;6.35;47.96
13050;BME280;6591;51.446;5.404;2023-04-26T04:14:26;101626.94;;;6.36;47.77
13050;BME280;6591;51.446;5.404;2023-04-26T04:16:54;101622.53;;;6.37;47.87
13050;BME280;6591;51.446;5.404;2023-04-26T04:19:21;101625.13;;;6.38;47.30
13050;BME280;6591;51.446;5.404;2023-04-26T04:21:48;101615.50;;;6.37;48.23
13050;BME280;6591;51.446;5.404;2023-04-26T04:24:15;101626.88;;;6.39;47.55
13050;BME280;6591;51.446;5.404;2023-04-26T04:26:43;101625.13;;;6.40;47.65
13050;BME280;6591;51.446;5.404;2023-04-26T04:29:11;101618.09;;;6.39;48.19
13050;BME280;6591;51.446;5.404;2023-04-26T04:31:38;101626.00;;;6.39;48.12
13050;BME280;6591;51.446;5.404;2023-04-26T04:35:21;101626.13;;;6.31;47.89
13050;BME280;6591;51.446;5.404;2023-04-26T04:39:03;101626.16;;;6.28;48.16
13050;BME280;6591;51.446;5.404;2023-04-26T04:42:43;101629.69;;;6.29;48.17
13050;BME280;6591;51.446;5.404;2023-04-26T04:46:24;101636.69;;;6.33;48.85
13050;BME280;6591;51.446;5.404;2023-04-26T04:50:06;101634.84;;;6.36;48.45
13050;BME280;6591;51.446;5.404;2023-04-26T04:53:29;101645.31;;;6.41;48.54
13050;BME280;6591;51.446;5.404;2023-04-26T04:55:57;101645.16;;;6.52;49.22
13050;BME280;6591;51.446;5.404;2023-04-26T04:58:24;101647.66;;;6.61;48.89
13050;BME280;6591;51.446;5.404;2023-04-26T05:00:51;101643.09;;;6.70;48.61
13050;BME280;6591;51.446;5.404;2023-04-26T05:03:38;101649.06;;;6.81;48.13
13050;BME280;6591;51.446;5.404;2023-04-26T05:06:06;101641.91;;;6.88;48.35
13050;BME280;6591;51.446;5.404;2023-04-26T05:08:34;101647.03;;;6.97;48.88
13050;BME280;6591;51.446;5.404;2023-04-26T05:11:05;101652.16;;;7.06;48.42
13050;BME280;6591;51.446;5.404;2023-04-26T05:13:32;101633.50;;;7.17;49.07
13050;BME280;6591;51.446;5.404;2023-04-26T05:15:59;101639.47;;;7.27;49.02
13050;BME280;6591;51.446;5.404;2023-04-26T05:18:26;101641.91;;;7.36;49.01
13050;BME280;6591;51.446;5.404;2023-04-26T05:20:53;101641.69;;;7.48;48.95
13050;BME280;6591;51.446;5.404;2023-04-26T05:23:20;101638.84;;;7.58;48.97
13050;BME280;6591;51.446;5.404;2023-04-26T05:25:47;101643.03;;;7.69;49.20
13050;BME280;6591;51.446;5.404;2023-04-26T05:28:32;101646.34;;;7.78;49.53
13050;BME280;6591;51.446;5.404;2023-04-26T05:31:21;101650.53;;;7.88;49.82
13050;BME280;6591;51.446;5.404;2023-04-26T05:34:06;101652.06;;;7.98;49.36
13050;BME280;6591;51.446;5.404;2023-04-26T05:36:38;101657.13;;;8.09;49.88
13050;BME280;6591;51.446;5.404;2023-04-26T05:39:05;101648.97;;;8.20;49.44
13050;BME280;6591;51.446;5.404;2023-04-26T05:41:33;101650.53;;;8.30;49.50
13050;BME280;6591;51.446;5.404;2023-04-26T05:44:00;101653.78;;;8.41;49.78
13050;BME280;6591;51.446;5.404;2023-04-26T05:46:27;101653.53;;;8.52;49.93
13050;BME280;6591;51.446;5.404;2023-04-26T05:48:54;101649.78;;;8.62;49.39
13050;BME280;6591;51.446;5.404;2023-04-26T05:51:22;101653.91;;;8.73;49.98
13050;BME280;6591;51.446;5.404;2023-04-26T05:53:49;101651.88;;;8.83;49.72
13050;BME280;6591;51.446;5.404;2023-04-26T05:56:17;101651.66;;;8.92;50.01
13050;BME280;6591;51.446;5.404;2023-04-26T05:58:44;101646.97;;;9.02;50.07
13050;BME280;6591;51.446;5.404;2023-04-26T06:01:11;101639.63;;;9.13;49.85
13050;BME280;6591;51.446;5.404;2023-04-26T06:03:39;101639.34;;;9.23;49.87
13050;BME280;6591;51.446;5.404;2023-04-26T06:06:07;101646.00;;;9.38;50.20
13050;BME280;6591;51.446;5.404;2023-04-26T06:08:37;101649.09;;;9.54;50.22
13050;BME280;6591;51.446;5.404;2023-04-26T06:11:05;101643.31;;;9.70;50.39
13050;BME280;6591;51.446;5.404;2023-04-26T06:13:32;101649.88;;;9.88;50.30
13050;BME280;6591;51.446;5.404;2023-04-26T06:15:59;101656.38;;;10.07;50.65
13050;BME280;6591;51.446;5.404;2023-04-26T06:18:26;101660.28;;;10.25;50.60
13050;BME280;6591;51.446;5.404;2023-04-26T06:20:53;101659.66;;;10.45;50.62
13050;BME280;6591;51.446;5.404;2023-04-26T06:23:20;101653.81;;;10.61;50.06
13050;BME280;6591;51.446;5.404;2023-04-26T06:25:47;101654.09;;;10.79;50.26
13050;BME280;6591;51.446;5.404;2023-04-26T06:28:14;101660.66;;;10.95;50.43
13050;BME280;6591;51.446;5.404;2023-04-26T06:30:42;101661.00;;;11.11;50.38
13050;BME280;6591;51.446;5.404;2023-04-26T06:33:09;101655.97;;;11.28;50.18
13050;BME280;6591;51.446;5.404;2023-04-26T06:35:41;101662.44;;;11.45;50.49
13050;BME280;6591;51.446;5.404;2023-04-26T06:38:10;101667.94;;;11.64;50.59
13050;BME280;6591;51.446;5.404;2023-04-26T06:40:38;101669.84;;;11.85;50.94
13050;BME280;6591;51.446;5.404;2023-04-26T06:43:05;101661.88;;;12.09;51.17
13050;BME280;6591;51.446;5.404;2023-04-26T06:45:51;101668.00;;;12.34;51.65
13050;BME280;6591;51.446;5.404;2023-04-26T06:48:19;101671.47;;;12.58;51.08
13050;BME280;6591;51.446;5.404;2023-04-26T06:50:46;101663.31;;;12.83;50.59
13050;BME280;6591;51.446;5.404;2023-04-26T06:53:13;101661.56;;;13.03;50.83
13050;BME280;6591;51.446;5.404;2023-04-26T06:55:40;101654.56;;;13.23;50.68
13050;BME280;6591;51.446;5.404;2023-04-26T06:58:07;101652.00;;;13.40;50.73
13050;BME280;6591;51.446;5.404;2023-04-26T07:00:34;101664.69;;;13.55;50.65
13050;BME280;6591;51.446;5.404;2023-04-26T07:03:01;101664.00;;;13.70;50.21
13050;BME280;6591;51.446;5.404;2023-04-26T07:05:28;101665.22;;;13.82;50.17
13050;BME280;6591;51.446;5.404;2023-04-26T07:07:55;101660.16;;;13.96;50.23
13050;BME280;6591;51.446;5.404;2023-04-26T07:10:22;101666.63;;;14.09;50.13
13050;BME280;6591;51.446;5.404;2023-04-26T07:12:49;101667.00;;;14.20;50.00
13050;BME280;6591;51.446;5.404;2023-04-26T07:15:17;101665.50;;;14.33;49.99
13050;BME280;6591;51.446;5.404;2023-04-26T07:17:44;101665.84;;;14.45;49.76
13050;BME280;6591;51.446;5.404;2023-04-26T07:20:11;101662.53;;;14.58;49.82
13050;BME280;6591;51.446;5.404;2023-04-26T07:22:41;101662.72;;;14.72;49.59
13050;BME280;6591;51.446;5.404;2023-04-26T07:25:09;101661.09;;;14.87;49.61
13050;BME280;6591;51.446;5.404;2023-04-26T07:27:36;101666.53;;;15.03;49.42
13050;BME280;6591;51.446;5.404;2023-04-26T07:30:04;101671.09;;;15.18;49.19
13050;BME280;6591;51.446;5.404;2023-04-26T07:32:31;101663.06;;;15.35;49.17
13050;BME280;6591;51.446;5.404;2023-04-26T07:34:58;101668.44;;;15.52;48.96
13050;BME280;6591;51.446;5.404;2023-04-26T07:37:25;101659.34;;;15.72;48.94
13050;BME280;6591;51.446;5.404;2023-04-26T07:39:52;101659.25;;;15.91;48.68
13050;BME280;6591;51.446;5.404;2023-04-26T07:42:19;101655.47;;;16.10;48.18
13050;BME280;6591;51.446;5.404;2023-04-26T07:44:47;101651.00;;;16.27;48.17
13050;BME280;6591;51.446;5.404;2023-04-26T07:47:15;101658.94;;;16.44;47.94
13050;BME280;6591;51.446;5.404;2023-04-26T07:49:42;101652.56;;;16.62;47.74
13050;BME280;6591;51.446;5.404;2023-04-26T07:52:12;101646.03;;;16.82;47.84
13050;BME280;6591;51.446;5.404;2023-04-26T07:54:38;101649.56;;;16.98;47.03
13050;BME280;6591;51.446;5.404;2023-04-26T07:57:06;101643.47;;;17.10;46.70
13050;BME280;6591;51.446;5.404;2023-04-26T07:59:33;101641.84;;;17.22;46.20
13050;BME280;6591;51.446;5.404;2023-04-26T08:02:00;101644.59;;;17.36;46.31
13050;BME280;6591;51.446;5.404;2023-04-26T08:04:32;101650.16;;;17.47;46.18
13050;BME280;6591;51.446;5.404;2023-04-26T08:07:01;101658.44;;;17.58;45.94
13050;BME280;6591;51.446;5.404;2023-04-26T08:09:29;101668.63;;;17.67;45.82
13050;BME280;6591;51.446;5.404;2023-04-26T08:11:57;101665.47;;;17.75;45.61
13050;BME280;6591;51.446;5.404;2023-04-26T08:14:24;101677.19;;;17.88;45.28
13050;BME280;6591;51.446;5.404;2023-04-26T08:16:51;101676.22;;;18.03;45.50
13050;BME280;6591;51.446;5.404;2023-04-26T08:19:18;101671.53;;;18.21;45.47
13050;BME280;6591;51.446;5.404;2023-04-26T08:21:45;101669.44;;;18.39;45.50
13050;BME280;6591;51.446;5.404;2023-04-26T08:24:13;101661.09;;;18.57;45.23
13050;BME280;6591;51.446;5.404;2023-04-26T08:26:39;101658.91;;;18.77;45.08
13050;BME280;6591;51.446;5.404;2023-04-26T08:29:06;101655.97;;;18.94;44.48
13050;BME280;6591;51.446;5.404;2023-04-26T08:31:33;101659.00;;;19.02;43.91
13050;BME280;6591;51.446;5.404;2023-04-26T08:34:01;101656.94;;;19.05;43.69
13050;BME280;6591;51.446;5.404;2023-04-26T08:36:29;101663.75;;;19.11;43.74
13050;BME280;6591;51.446;5.404;2023-04-26T08:38:58;101664.09;;;19.19;43.71
13050;BME280;6591;51.446;5.404;2023-04-26T08:41:26;101654.34;;;19.31;43.68
13050;BME280;6591;51.446;5.404;2023-04-26T08:43:55;101656.09;;;19.44;43.20
13050;BME280;6591;51.446;5.404;2023-04-26T08:46:26;101656.13;;;19.57;42.60
13050;BME280;6591;51.446;5.404;2023-04-26T08:49:12;101656.53;;;19.64;42.20
13050;BME280;6591;51.446;5.404;2023-04-26T08:51:45;101652.78;;;19.66;41.55
13050;BME280;6591;51.446;5.404;2023-04-26T08:54:14;101652.31;;;19.60;41.11
13050;BME280;6591;51.446;5.404;2023-04-26T08:56:43;101647.91;;;19.59;41.67
13050;BME280;6591;51.446;5.404;2023-04-26T08:59:11;101656.75;;;19.61;41.53
13050;BME280;6591;51.446;5.404;2023-04-26T09:01:43;101662.56;;;19.55;40.58
13050;BME280;6591;51.446;5.404;2023-04-26T09:04:11;101658.84;;;19.43;40.69
13050;BME280;6591;51.446;5.404;2023-04-26T09:06:39;101659.72;;;19.31;40.46
13050;BME280;6591;51.446;5.404;2023-04-26T09:09:09;101654.06;;;19.21;40.23
13050;BME280;6591;51.446;5.404;2023-04-26T09:11:59;101659.53;;;19.07;40.16
13050;BME280;6591;51.446;5.404;2023-04-26T09:14:27;101656.31;;;19.02;40.00
13050;BME280;6591;51.446;5.404;2023-04-26T09:16:54;101649.50;;;18.96;40.07
13050;BME280;6591;51.446;5.404;2023-04-26T09:19:54;101657.25;;;18.88;40.04
13050;BME280;6591;51.446;5.404;2023-04-26T09:24:59;101645.03;;;19.10;40.42
13050;BME280;6591;51.446;5.404;2023-04-26T09:27:38;101640.50;;;19.10;38.84
13050;BME280;6591;51.446;5.404;2023-04-26T09:30:15;101650.84;;;19.16;39.19
13050;BME280;6591;51.446;5.404;2023-04-26T09:33:00;101643.00;;;19.26;39.23
13050;BME280;6591;51.446;5.404;2023-04-26T09:35:41;101636.44;;;19.42;39.73
13050;BME280;6591;51.446;5.404;2023-04-26T09:38:17;101642.53;;;19.71;39.87
13050;BME280;6591;51.446;5.404;2023-04-26T09:40:47;101650.06;;;20.04;40.47
13050;BME280;6591;51.446;5.404;2023-04-26T09:45:50;101644.84;;;20.87;40.45
13050;BME280;6591;51.446;5.404;2023-04-26T09:48:34;101641.22;;;21.34;39.51
13050;BME280;6591;51.446;5.404;2023-04-26T09:51:10;101637.38;;;21.82;39.33
13050;BME280;6591;51.446;5.404;2023-04-26T09:53:45;101636.63;;;22.25;39.51
13050;BME280;6591;51.446;5.404;2023-04-26T09:56:18;101634.81;;;22.68;38.89
13050;BME280;6591;51.446;5.404;2023-04-26T09:58:57;101630.81;;;22.95;37.55
13050;BME280;6591;51.446;5.404;2023-04-26T10:01:27;101626.28;;;23.16;37.47
13050;BME280;6591;51.446;5.404;2023-04-26T10:04:00;101630.81;;;23.36;36.63
13050;BME280;6591;51.446;5.404;2023-04-26T10:06:28;101631.78;;;23.46;36.61
13050;BME280;6591;51.446;5.404;2023-04-26T10:08:55;101629.06;;;23.46;35.90
13050;BME280;6591;51.446;5.404;2023-04-26T10:11:25;101635.59;;;23.44;35.24
13050;BME280;6591;51.446;5.404;2023-04-26T10:13:52;101632.25;;;23.51;35.26
13050;BME280;6591;51.446;5.404;2023-04-26T10:16:21;101629.69;;;23.50;35.01
13050;BME280;6591;51.446;5.404;2023-04-26T10:18:48;101636.47;;;23.44;34.28
13050;BME280;6591;51.446;5.404;2023-04-26T10:21:27;101631.09;;;23.33;34.54
13050;BME280;6591;51.446;5.404;2023-04-26T10:23:59;101627.13;;;23.37;34.98
13050;BME280;6591;51.446;5.404;2023-04-26T10:26:52;101628.78;;;23.29;34.50
13050;BME280;6591;51.446;5.404;2023-04-26T10:29:25;101626.09;;;23.29;34.21
13050;BME280;6591;51.446;5.404;2023-04-26T10:34:38;101622.91;;;23.23;34.92
13050;BME280;6591;51.446;5.404;2023-04-26T10:37:15;101617.41;;;23.35;34.15
13050;BME280;6591;51.446;5.404;2023-04-26T10:39:45;101615.97;;;23.51;34.87
13050;BME280;6591;51.446;5.404;2023-04-26T10:42:27;101615.31;;;23.59;33.48
13050;BME280;6591;51.446;5.404;2023-04-26T10:45:26;101606.66;;;23.65;33.53
13050;BME280;6591;51.446;5.404;2023-04-26T10:48:29;101608.25;;;23.77;34.21
13050;BME280;6591;51.446;5.404;2023-04-26T10:53:31;101611.22;;;24.04;33.69
13050;BME280;6591;51.446;5.404;2023-04-26T10:55:59;101611.13;;;24.16;33.49
13050;BME280;6591;51.446;5.404;2023-04-26T10:58:33;101610.38;;;24.14;32.06
13050;BME280;6591;51.446;5.404;2023-04-26T11:03:35;101612.53;;;23.70;31.98
13050;BME280;6591;51.446;5.404;2023-04-26T11:06:10;101610.66;;;23.29;31.32
13050;BME280;6591;51.446;5.404;2023-04-26T11:08:41;101608.16;;;22.96;31.68
13050;BME280;6591;51.446;5.404;2023-04-26T11:11:12;101612.56;;;22.65;32.02
13050;BME280;6591;51.446;5.404;2023-04-26T11:13:43;101607.19;;;22.43;32.16
13050;BME280;6591;51.446;5.404;2023-04-26T11:16:15;101609.81;;;22.22;32.34
13050;BME280;6591;51.446;5.404;2023-04-26T11:18:46;101602.97;;;21.95;31.96
13050;BME280;6591;51.446;5.404;2023-04-26T11:21:13;101604.41;;;21.77;32.38
13050;BME280;6591;51.446;5.404;2023-04-26T11:23:53;101600.22;;;21.62;32.32
13050;BME280;6591;51.446;5.404;2023-04-26T11:26:20;101593.84;;;21.63;33.30
13050;BME280;6591;51.446;5.404;2023-04-26T11:28:48;101600.22;;;21.62;32.95
13050;BME280;6591;51.446;5.404;2023-04-26T11:31:18;101598.75;;;21.58;32.43
13050;BME280;6591;51.446;5.404;2023-04-26T11:33:45;101586.09;;;21.59;33.33
13050;BME280;6591;51.446;5.404;2023-04-26T11:36:16;101586.97;;;21.70;33.58
13050;BME280;6591;51.446;5.404;2023-04-26T11:38:45;101583.50;;;21.90;33.95
13050;BME280;6591;51.446;5.404;2023-04-26T11:41:12;101578.72;;;22.16;33.93
13050;BME280;6591;51.446;5.404;2023-04-26T11:43:39;101578.91;;;22.35;33.01
13050;BME280;6591;51.446;5.404;2023-04-26T11:46:07;101579.03;;;22.45;32.62
13050;BME280;6591;51.446;5.404;2023-04-26T11:48:37;101577.78;;;22.49;32.26
13050;BME280;6591;51.446;5.404;2023-04-26T11:51:07;101581.34;;;22.50;32.38
13050;BME280;6591;51.446;5.404;2023-04-26T11:53:40;101583.66;;;22.54;32.77
13050;BME280;6591;51.446;5.404;2023-04-26T11:56:20;101589.66;;;22.58;32.16
13050;BME280;6591;51.446;5.404;2023-04-26T11:58:50;101592.13;;;22.61;32.53
13050;BME280;6591;51.446;5.404;2023-04-26T12:01:29;101594.00;;;22.60;32.22
13050;BME280;6591;51.446;5.404;2023-04-26T12:03:58;101591.59;;;22.67;32.39
13050;BME280;6591;51.446;5.404;2023-04-26T12:06:31;101591.88;;;22.64;32.04
13050;BME280;6591;51.446;5.404;2023-04-26T12:09:02;101590.53;;;22.58;31.60
13050;BME280;6591;51.446;5.404;2023-04-26T12:11:31;101588.44;;;22.51;31.61
13050;BME280;6591;51.446;5.404;2023-04-26T12:13:58;101590.88;;;22.33;31.07
13050;BME280;6591;51.446;5.404;2023-04-26T12:16:26;101586.94;;;22.15;31.38
13050;BME280;6591;51.446;5.404;2023-04-26T12:18:58;101588.19;;;22.00;31.45
13050;BME280;6591;51.446;5.404;2023-04-26T12:21:25;101587.09;;;21.91;31.95
13050;BME280;6591;51.446;5.404;2023-04-26T12:23:56;101590.28;;;21.85;31.50
13050;BME280;6591;51.446;5.404;2023-04-26T12:26:42;101592.75;;;21.77;31.84
13050;BME280;6591;51.446;5.404;2023-04-26T12:29:12;101589.19;;;21.76;31.72
13050;BME280;6591;51.446;5.404;2023-04-26T12:31:39;101592.13;;;21.73;32.17
13050;BME280;6591;51.446;5.404;2023-04-26T12:34:06;101593.59;;;21.66;31.88
13050;BME280;6591;51.446;5.404;2023-04-26T12:36:34;101592.50;;;21.69;31.81
13050;BME280;6591;51.446;5.404;2023-04-26T12:39:01;101591.03;;;21.76;32.28
13050;BME280;6591;51.446;5.404;2023-04-26T12:41:31;101586.97;;;21.81;32.16
13050;BME280;6591;51.446;5.404;2023-04-26T12:43:58;101583.50;;;21.90;32.04
13050;BME280;6591;51.446;5.404;2023-04-26T12:46:25;101595.06;;;22.04;32.06
13050;BME280;6591;51.446;5.404;2023-04-26T12:48:52;101596.06;;;22.14;32.07
13050;BME280;6591;51.446;5.404;2023-04-26T12:51:19;101589.91;;;22.23;31.50
13050;BME280;6591;51.446;5.404;2023-04-26T12:53:46;101592.59;;;22.34;31.79
13050;BME280;6591;51.446;5.404;2023-04-26T12:56:13;101582.09;;;22.40;31.45
13050;BME280;6591;51.446;5.404;2023-04-26T12:58:41;101586.63;;;22.40;31.03
13050;BME280;6591;51.446;5.404;2023-04-26T13:01:11;101581.50;;;22.37;31.37
13050;BME280;6591;51.446;5.404;2023-04-26T13:03:39;101584.09;;;22.38;31.25
13050;BME280;6591;51.446;5.404;2023-04-26T13:06:06;101576.56;;;22.42;31.42
13050;BME280;6591;51.446;5.404;2023-04-26T13:08:33;101579.75;;;22.47;31.33
13050;BME280;6591;51.446;5.404;2023-04-26T13:11:01;101577.78;;;22.49;31.01
13050;BME280;6591;51.446;5.404;2023-04-26T13:13:28;101577.31;;;22.44;31.03
13050;BME280;6591;51.446;5.404;2023-04-26T13:16:08;101572.88;;;22.43;30.71
13050;BME280;6591;51.446;5.404;2023-04-26T13:18:35;101566.59;;;22.43;30.90
13050;BME280;6591;51.446;5.404;2023-04-26T13:21:03;101575.31;;;22.46;31.11
13050;BME280;6591;51.446;5.404;2023-04-26T13:23:29;101572.09;;;22.52;30.90
13050;BME280;6591;51.446;5.404;2023-04-26T13:25:57;101577.13;;;22.57;31.00
13050;BME280;6591;51.446;5.404;2023-04-26T13:28:24;101584.03;;;22.61;30.97
13050;BME280;6591;51.446;5.404;2023-04-26T13:30:51;101582.13;;;22.61;31.05
13050;BME280;6591;51.446;5.404;2023-04-26T13:33:19;101578.44;;;22.62;30.83
13050;BME280;6591;51.446;5.404;2023-04-26T13:35:47;101582.28;;;22.71;30.86